Time;durP1;ratioP1;P1;durP2;ratioP2;P2;SDS_P1;SDS_P2;PMS_P1;PMS_P2;Temp;Humidity;BMP_temperature;BMP_pressure;BME280_temperature;BME280_humidity;BME280_pressure;Samples;Min_cycle;Max_cycle;Signal;HPM_P1;HPM_P2
2021/08/18 00:00:37;;;;;;;3.08;2.60;;;;;;;;;;5076774;28;20213;-46
2021/08/18 00:03:03;;;;;;;3.53;2.53;;;;;;;;;;5076153;28;20210;-46
2021/08/18 00:05:30;;;;;;;3.05;2.70;;;;;;;;;;5085806;28;20537;-46
2021/08/18 00:07:56;;;;;;;3.33;3.03;;;;;;;;;;5095323;28;20461;-46
2021/08/18 00:10:24;;;;;;;3.33;3.03;;;;;;;;;;5082350;28;20170;-46
2021/08/18 00:12:50;;;;;;;3.28;2.80;;;;;;;;;;5085062;28;20374;-46
2021/08/18 00:15:16;;;;;;;3.30;2.90;;;;;;;;;;5079757;28;20279;-46
2021/08/18 00:17:43;;;;;;;3.22;2.80;;;;;;;;;;5061352;28;20182;-46
2021/08/18 00:20:09;;;;;;;3.08;2.78;;;;;;;;;;5096109;28;20257;-46
2021/08/18 00:22:35;;;;;;;3.28;2.78;;;;;;;;;;5095520;28;20178;-46
2021/08/18 00:25:01;;;;;;;2.90;2.60;;;;;;;;;;5096385;28;20181;-46
2021/08/18 00:27:27;;;;;;;3.35;2.97;;;;;;;;;;5089242;28;20198;-46
2021/08/18 00:29:53;;;;;;;3.10;2.60;;;;;;;;;;5079132;28;20224;-46
2021/08/18 00:32:19;;;;;;;2.63;2.42;;;;;;;;;;5075980;28;20177;-46
2021/08/18 00:34:45;;;;;;;4.57;3.00;;;;;;;;;;5095903;28;20501;-46
2021/08/18 00:37:11;;;;;;;3.95;3.50;;;;;;;;;;5095471;28;20173;-46
2021/08/18 00:39:37;;;;;;;3.17;2.75;;;;;;;;;;5076096;28;20484;-46
2021/08/18 00:42:03;;;;;;;3.42;3.13;;;;;;;;;;5080259;28;20197;-46
2021/08/18 00:44:31;;;;;;;3.50;3.10;;;;;;;;;;5085974;28;20200;-46
2021/08/18 00:46:58;;;;;;;2.67;2.47;;;;;;;;;;5094792;28;20263;-46
2021/08/18 00:49:25;;;;;;;3.50;3.00;;;;;;;;;;5078111;28;20178;-46
2021/08/18 00:51:51;;;;;;;2.67;2.47;;;;;;;;;;5077058;28;20485;-46
2021/08/18 00:54:18;;;;;;;3.78;2.60;;;;;;;;;;5095413;28;20186;-46
2021/08/18 00:56:45;;;;;;;3.20;2.80;;;;;;;;;;5094003;28;20445;-46
2021/08/18 00:59:11;;;;;;;2.80;2.53;;;;;;;;;;5082559;28;20537;-46
2021/08/18 01:01:38;;;;;;;3.53;2.83;;;;;;;;;;5082187;28;20209;-46
2021/08/18 01:04:05;;;;;;;3.17;2.78;;;;;;;;;;5089095;28;20274;-46
2021/08/18 01:06:31;;;;;;;3.20;2.90;;;;;;;;;;5095521;28;20276;-46
2021/08/18 01:08:58;;;;;;;4.03;2.90;;;;;;;;;;5086577;28;20449;-46
2021/08/18 01:11:24;;;;;;;2.95;2.70;;;;;;;;;;5075564;28;20181;-46
2021/08/18 01:13:50;;;;;;;3.13;2.85;;;;;;;;;;5086822;28;20167;-46
2021/08/18 01:16:16;;;;;;;3.97;2.83;;;;;;;;;;5075962;28;20178;-46
2021/08/18 01:18:42;;;;;;;3.00;2.70;;;;;;;;;;5085765;28;20322;-46
2021/08/18 01:21:08;;;;;;;3.00;2.70;;;;;;;;;;5094578;28;20192;-46
2021/08/18 01:23:34;;;;;;;3.20;2.90;;;;;;;;;;5094836;28;20177;-46
2021/08/18 01:26:00;;;;;;;2.75;2.55;;;;;;;;;;5094735;28;20200;-46
2021/08/18 01:28:27;;;;;;;3.05;2.75;;;;;;;;;;5089506;28;20289;-46
2021/08/18 01:30:53;;;;;;;4.18;2.55;;;;;;;;;;5074580;28;20163;-46
2021/08/18 01:33:19;;;;;;;3.20;2.90;;;;;;;;;;5083071;28;20209;-46
2021/08/18 01:35:47;;;;;;;3.13;2.70;;;;;;;;;;5095099;28;20197;-46
2021/08/18 01:38:14;;;;;;;3.53;2.60;;;;;;;;;;5087455;28;20481;-46
2021/08/18 01:40:40;;;;;;;3.53;3.00;;;;;;;;;;5094847;28;20169;-46
2021/08/18 01:43:07;;;;;;;2.88;2.58;;;;;;;;;;5078348;28;20182;-46
2021/08/18 01:45:43;;;;;;;2.97;2.67;;;;;;;;;;5093406;28;20188;-46
2021/08/18 01:48:13;;;;;;;2.78;2.58;;;;;;;;;;5087468;28;20537;-46
2021/08/18 01:50:40;;;;;;;3.53;2.80;;;;;;;;;;5074574;28;20170;-46
2021/08/18 01:53:06;;;;;;;3.50;3.05;;;;;;;;;;5076131;28;20281;-46
2021/08/18 01:55:32;;;;;;;2.80;2.60;;;;;;;;;;5088545;28;20197;-46
2021/08/18 01:57:59;;;;;;;2.78;2.35;;;;;;;;;;5084071;28;20453;-46
2021/08/18 02:00:25;;;;;;;3.05;2.50;;;;;;;;;;5096335;28;20186;-46
2021/08/18 02:02:51;;;;;;;2.97;2.67;;;;;;;;;;5089226;28;20534;-46
2021/08/18 02:05:18;;;;;;;3.30;2.75;;;;;;;;;;5098963;28;20205;-46
2021/08/18 02:07:44;;;;;;;2.95;2.67;;;;;;;;;;5097348;28;20201;-46
2021/08/18 02:10:12;;;;;;;2.72;2.38;;;;;;;;;;5087167;28;20174;-46
2021/08/18 02:12:38;;;;;;;3.22;2.90;;;;;;;;;;5085427;28;20243;-46
2021/08/18 02:15:15;;;;;;;2.72;2.53;;;;;;;;;;5083732;28;20557;-46
2021/08/18 02:17:41;;;;;;;2.63;2.42;;;;;;;;;;5077847;28;20569;-46
2021/08/18 02:20:09;;;;;;;2.90;2.60;;;;;;;;;;5078452;28;20173;-46
2021/08/18 02:22:35;;;;;;;3.38;3.05;;;;;;;;;;5078322;28;20253;-46
2021/08/18 02:25:01;;;;;;;3.08;2.78;;;;;;;;;;5077851;28;20433;-46
2021/08/18 02:27:27;;;;;;;2.58;2.38;;;;;;;;;;5088605;28;20338;-46
2021/08/18 02:29:53;;;;;;;3.05;2.75;;;;;;;;;;5084976;28;20174;-46
2021/08/18 02:32:19;;;;;;;3.40;2.80;;;;;;;;;;5078114;28;20257;-46
2021/08/18 02:34:45;;;;;;;3.00;2.60;;;;;;;;;;5098267;28;20477;-46
2021/08/18 02:37:11;;;;;;;4.13;3.03;;;;;;;;;;5090697;28;20177;-46
2021/08/18 02:39:37;;;;;;;2.75;2.55;;;;;;;;;;5097790;28;20456;-46
2021/08/18 02:42:04;;;;;;;2.90;2.60;;;;;;;;;;5091115;28;20225;-46
2021/08/18 02:44:30;;;;;;;3.25;2.67;;;;;;;;;;5087856;28;20189;-46
2021/08/18 02:46:56;;;;;;;2.95;2.55;;;;;;;;;;5077409;28;20206;-46
2021/08/18 02:49:22;;;;;;;3.20;2.70;;;;;;;;;;5094414;28;20476;-46
2021/08/18 02:51:48;;;;;;;2.80;2.55;;;;;;;;;;5096248;28;20158;-45
2021/08/18 02:54:14;;;;;;;3.15;2.60;;;;;;;;;;5086361;28;20200;-46
2021/08/18 02:56:40;;;;;;;3.35;2.65;;;;;;;;;;5079145;28;20166;-46
2021/08/18 02:59:07;;;;;;;3.03;2.75;;;;;;;;;;5085846;28;20239;-46
2021/08/18 03:01:33;;;;;;;2.78;2.47;;;;;;;;;;5079208;28;20632;-46
2021/08/18 03:03:59;;;;;;;2.80;2.60;;;;;;;;;;5090440;28;20190;-46
2021/08/18 03:06:25;;;;;;;2.90;2.60;;;;;;;;;;5097789;28;20177;-46
2021/08/18 03:08:51;;;;;;;2.67;2.33;;;;;;;;;;5082946;28;20197;-46
2021/08/18 03:11:17;;;;;;;2.72;2.53;;;;;;;;;;5097385;28;20166;-48
2021/08/18 03:13:43;;;;;;;2.72;2.53;;;;;;;;;;5084449;28;20545;-46
2021/08/18 03:16:09;;;;;;;2.80;2.60;;;;;;;;;;5093859;28;20213;-46
2021/08/18 03:18:35;;;;;;;2.67;2.40;;;;;;;;;;5087103;28;20209;-46
2021/08/18 03:21:02;;;;;;;2.40;2.20;;;;;;;;;;5096697;28;20478;-46
2021/08/18 03:23:28;;;;;;;2.78;2.58;;;;;;;;;;5085137;28;20186;-46
2021/08/18 03:25:54;;;;;;;2.80;2.50;;;;;;;;;;5077131;28;20475;-46
2021/08/18 03:28:20;;;;;;;3.05;2.65;;;;;;;;;;5088748;28;20209;-46
2021/08/18 03:30:46;;;;;;;3.60;2.53;;;;;;;;;;5077136;28;20167;-46
2021/08/18 03:33:12;;;;;;;2.78;2.58;;;;;;;;;;5077016;28;20562;-46
2021/08/18 03:35:38;;;;;;;3.25;2.95;;;;;;;;;;5081861;28;20188;-45
2021/08/18 03:38:04;;;;;;;2.95;2.65;;;;;;;;;;5093760;28;20179;-46
2021/08/18 03:40:30;;;;;;;3.10;2.50;;;;;;;;;;5063057;28;20182;-46
2021/08/18 03:42:59;;;;;;;2.92;2.67;;;;;;;;;;5088710;28;20273;-46
2021/08/18 03:45:25;;;;;;;4.10;2.72;;;;;;;;;;5079524;28;20449;-45
2021/08/18 03:47:51;;;;;;;3.00;2.70;;;;;;;;;;5080244;28;20192;-46
2021/08/18 03:50:17;;;;;;;2.60;2.30;;;;;;;;;;5096606;28;20261;-46
2021/08/18 03:52:43;;;;;;;2.60;2.30;;;;;;;;;;5081607;28;20224;-46
2021/08/18 03:55:11;;;;;;;2.50;2.30;;;;;;;;;;5089605;28;20174;-46
2021/08/18 03:57:37;;;;;;;2.55;2.33;;;;;;;;;;5088756;28;20193;-46
2021/08/18 04:00:04;;;;;;;2.60;2.40;;;;;;;;;;5078918;28;20478;-46
2021/08/18 04:02:30;;;;;;;2.70;2.28;;;;;;;;;;5077113;28;20256;-47
2021/08/18 04:04:56;;;;;;;2.75;2.55;;;;;;;;;;5096499;28;20166;-46
2021/08/18 04:07:22;;;;;;;3.00;2.70;;;;;;;;;;5094913;28;20233;-46
2021/08/18 04:09:48;;;;;;;3.10;2.78;;;;;;;;;;5086516;28;20202;-46
2021/08/18 04:12:14;;;;;;;2.38;2.17;;;;;;;;;;5079832;28;20176;-46
2021/08/18 04:14:40;;;;;;;2.85;2.47;;;;;;;;;;5089063;28;20219;-46
2021/08/18 04:17:06;;;;;;;2.55;2.35;;;;;;;;;;5088871;28;20608;-46
2021/08/18 04:19:32;;;;;;;2.65;2.45;;;;;;;;;;5078157;28;20457;-46
2021/08/18 04:21:58;;;;;;;3.20;2.75;;;;;;;;;;5094354;28;20182;-46
2021/08/18 04:24:24;;;;;;;2.47;2.28;;;;;;;;;;5095827;28;20556;-46
2021/08/18 04:26:50;;;;;;;2.75;2.50;;;;;;;;;;5094533;28;20217;-46
2021/08/18 04:29:18;;;;;;;2.78;2.58;;;;;;;;;;5084276;28;20418;-46
2021/08/18 04:31:44;;;;;;;2.97;2.50;;;;;;;;;;5096050;28;20166;-46
2021/08/18 04:34:10;;;;;;;2.28;2.08;;;;;;;;;;5080865;28;20193;-46
2021/08/18 04:36:36;;;;;;;2.58;2.38;;;;;;;;;;5095048;28;20258;-46
2021/08/18 04:39:02;;;;;;;2.42;2.22;;;;;;;;;;5094871;28;20189;-46
2021/08/18 04:41:28;;;;;;;2.17;1.98;;;;;;;;;;5091006;28;20229;-46
2021/08/18 04:43:54;;;;;;;2.97;2.10;;;;;;;;;;5084204;28;20568;-46
2021/08/18 04:46:20;;;;;;;2.40;2.20;;;;;;;;;;5092500;28;20457;-46
2021/08/18 04:48:46;;;;;;;2.55;2.35;;;;;;;;;;5082030;28;20209;-46
2021/08/18 04:51:11;;;;;;;2.60;2.10;;;;;;;;;;5084574;28;20965;-46
2021/08/18 04:53:37;;;;;;;2.70;2.50;;;;;;;;;;5076710;28;20183;-46
2021/08/18 04:56:04;;;;;;;2.60;2.40;;;;;;;;;;5084330;28;20186;-46
2021/08/18 04:58:30;;;;;;;2.75;1.98;;;;;;;;;;5089293;28;20239;-45
2021/08/18 05:00:56;;;;;;;2.83;2.47;;;;;;;;;;5075058;28;20194;-46
2021/08/18 05:03:22;;;;;;;4.53;2.60;;;;;;;;;;5074514;28;20225;-46
2021/08/18 05:05:48;;;;;;;3.20;2.70;;;;;;;;;;5075104;28;20198;-46
2021/08/18 05:08:15;;;;;;;3.67;2.40;;;;;;;;;;5082855;28;20267;-46
2021/08/18 05:10:42;;;;;;;2.90;2.25;;;;;;;;;;5074834;28;20163;-46
2021/08/18 05:13:08;;;;;;;2.60;2.40;;;;;;;;;;5078915;28;20442;-46
2021/08/18 05:15:34;;;;;;;3.75;2.50;;;;;;;;;;5092042;28;20166;-46
2021/08/18 05:18:00;;;;;;;2.63;2.40;;;;;;;;;;5087644;28;20539;-46
2021/08/18 05:20:29;;;;;;;3.58;2.50;;;;;;;;;;5075049;28;20186;-46
2021/08/18 05:22:55;;;;;;;3.85;2.40;;;;;;;;;;5088538;28;20182;-46
2021/08/18 05:25:21;;;;;;;2.80;2.30;;;;;;;;;;5089633;28;20232;-46
2021/08/18 05:27:47;;;;;;;2.55;2.33;;;;;;;;;;5083473;28;20608;-46
2021/08/18 05:30:15;;;;;;;2.95;2.40;;;;;;;;;;5082630;28;20186;-46
2021/08/18 05:32:41;;;;;;;2.88;2.38;;;;;;;;;;5074817;28;20286;-46
2021/08/18 05:35:09;;;;;;;6.38;3.30;;;;;;;;;;5074768;28;20167;-46
2021/08/18 05:37:35;;;;;;;5.40;3.20;;;;;;;;;;5083932;28;20193;-46
2021/08/18 05:40:01;;;;;;;15.98;4.90;;;;;;;;;;5092471;28;20216;-46
2021/08/18 05:42:27;;;;;;;17.42;4.78;;;;;;;;;;5091180;28;20200;-46
2021/08/18 05:44:53;;;;;;;18.52;5.32;;;;;;;;;;5086821;28;20590;-46
2021/08/18 05:47:19;;;;;;;26.05;6.50;;;;;;;;;;5094375;28;20198;-46
2021/08/18 05:49:45;;;;;;;28.58;6.88;;;;;;;;;;5074700;28;20200;-46
2021/08/18 05:52:11;;;;;;;24.30;5.93;;;;;;;;;;5076013;28;20461;-46
2021/08/18 05:54:38;;;;;;;21.40;5.82;;;;;;;;;;5078764;28;20178;-46
2021/08/18 05:57:05;;;;;;;19.77;6.18;;;;;;;;;;5076036;28;20182;-46
2021/08/18 05:59:31;;;;;;;21.38;5.35;;;;;;;;;;5085674;28;20176;-46
2021/08/18 06:01:57;;;;;;;14.45;4.82;;;;;;;;;;5094319;28;20185;-46
2021/08/18 06:04:23;;;;;;;14.02;4.88;;;;;;;;;;5077753;28;20186;-46
2021/08/18 06:06:48;;;;;;;21.23;6.45;;;;;;;;;;5073831;28;20433;-46
2021/08/18 06:09:14;;;;;;;20.52;6.00;;;;;;;;;;5073737;28;20286;-46
2021/08/18 06:11:42;;;;;;;15.70;5.38;;;;;;;;;;5076528;28;20182;-46
2021/08/18 06:14:09;;;;;;;18.92;5.45;;;;;;;;;;5093966;28;20166;-46
2021/08/18 06:16:35;;;;;;;12.60;5.28;;;;;;;;;;5087321;28;20198;-46
2021/08/18 06:19:01;;;;;;;13.48;5.03;;;;;;;;;;5090221;28;20178;-46
2021/08/18 06:21:27;;;;;;;16.38;5.57;;;;;;;;;;5087016;28;20205;-46
2021/08/18 06:23:57;;;;;;;15.63;6.05;;;;;;;;;;5088444;28;20264;-46
2021/08/18 06:26:23;;;;;;;15.80;5.63;;;;;;;;;;5093059;28;20175;-46
2021/08/18 06:28:49;;;;;;;15.32;6.22;;;;;;;;;;5074010;28;20215;-46
2021/08/18 06:31:15;;;;;;;13.43;5.93;;;;;;;;;;5082845;28;20169;-46
2021/08/18 06:33:41;;;;;;;14.32;6.05;;;;;;;;;;5094019;28;20240;-46
2021/08/18 06:36:07;;;;;;;18.13;6.03;;;;;;;;;;5080941;28;20171;-46
2021/08/18 06:38:33;;;;;;;15.90;6.50;;;;;;;;;;5055891;28;20186;-46
2021/08/18 06:40:59;;;;;;;20.35;6.22;;;;;;;;;;5073939;28;20190;-46
2021/08/18 06:43:25;;;;;;;13.18;6.03;;;;;;;;;;5093780;28;20176;-46
2021/08/18 06:45:51;;;;;;;17.27;6.15;;;;;;;;;;5089373;28;20232;-46
2021/08/18 06:48:17;;;;;;;16.27;6.25;;;;;;;;;;5076214;28;20860;-46
2021/08/18 06:50:43;;;;;;;17.92;6.85;;;;;;;;;;5077106;28;20173;-45
2021/08/18 06:53:09;;;;;;;19.20;7.03;;;;;;;;;;5077098;28;20170;-46
2021/08/18 06:55:35;;;;;;;18.42;6.97;;;;;;;;;;5076955;28;20175;-46
2021/08/18 06:58:01;;;;;;;16.75;6.22;;;;;;;;;;5076106;28;20175;-46
2021/08/18 07:00:27;;;;;;;16.08;6.80;;;;;;;;;;5077186;28;20174;-46
2021/08/18 07:02:53;;;;;;;14.65;6.13;;;;;;;;;;5077212;28;20504;-46
2021/08/18 07:05:20;;;;;;;16.30;6.35;;;;;;;;;;5076888;28;20224;-46
2021/08/18 07:07:46;;;;;;;16.55;6.88;;;;;;;;;;5076498;28;20612;-46
2021/08/18 07:10:13;;;;;;;17.40;7.20;;;;;;;;;;5077008;28;20203;-46
2021/08/18 07:12:39;;;;;;;14.25;6.25;;;;;;;;;;5075207;28;20450;-46
2021/08/18 07:15:06;;;;;;;14.75;6.70;;;;;;;;;;5075309;28;20182;-46
2021/08/18 07:17:32;;;;;;;16.30;6.85;;;;;;;;;;5074633;28;20171;-46
2021/08/18 07:19:58;;;;;;;17.75;6.93;;;;;;;;;;5075513;28;20543;-46
2021/08/18 07:22:24;;;;;;;17.48;6.82;;;;;;;;;;5075249;28;20175;-46
2021/08/18 07:24:50;;;;;;;16.98;6.70;;;;;;;;;;5074998;28;20446;-46
2021/08/18 07:27:17;;;;;;;14.43;6.28;;;;;;;;;;5076330;28;20198;-46
2021/08/18 07:29:43;;;;;;;13.50;5.68;;;;;;;;;;5076938;28;20167;-46
2021/08/18 07:32:09;;;;;;;13.85;6.00;;;;;;;;;;5076848;28;20167;-46
2021/08/18 07:34:35;;;;;;;16.77;6.10;;;;;;;;;;5076893;28;20173;-46
2021/08/18 07:37:01;;;;;;;11.45;5.75;;;;;;;;;;5076218;28;20179;-46
2021/08/18 07:39:27;;;;;;;12.60;5.88;;;;;;;;;;5076538;28;20181;-46
2021/08/18 07:41:53;;;;;;;15.07;6.28;;;;;;;;;;5084141;28;20186;-46
2021/08/18 07:44:19;;;;;;;13.35;6.28;;;;;;;;;;5096892;28;20466;-46
2021/08/18 07:46:46;;;;;;;13.50;5.80;;;;;;;;;;5096889;28;20170;-46
2021/08/18 07:49:13;;;;;;;14.63;6.05;;;;;;;;;;5096376;28;20169;-46
2021/08/18 07:51:39;;;;;;;13.85;5.95;;;;;;;;;;5096724;28;20193;-46
2021/08/18 07:54:05;;;;;;;11.52;5.90;;;;;;;;;;5096552;28;20174;-45
2021/08/18 07:56:33;;;;;;;14.00;5.70;;;;;;;;;;5095458;28;20169;-46
2021/08/18 07:59:00;;;;;;;10.48;5.57;;;;;;;;;;5096041;28;20552;-46
2021/08/18 08:01:26;;;;;;;13.93;5.72;;;;;;;;;;5096298;28;20198;-46
2021/08/18 08:03:52;;;;;;;10.23;5.00;;;;;;;;;;5096493;28;20196;-46
2021/08/18 08:06:18;;;;;;;11.57;5.93;;;;;;;;;;5096420;28;20166;-46
2021/08/18 08:08:44;;;;;;;10.70;5.40;;;;;;;;;;5095435;28;20599;-46
2021/08/18 08:11:10;;;;;;;10.63;5.43;;;;;;;;;;5096568;28;20235;-46
2021/08/18 08:13:36;;;;;;;11.88;5.28;;;;;;;;;;5096460;28;20230;-46
2021/08/18 08:16:02;;;;;;;10.30;5.10;;;;;;;;;;5096407;28;20512;-46
2021/08/18 08:18:28;;;;;;;9.70;5.28;;;;;;;;;;5083072;28;20441;-46
2021/08/18 08:20:54;;;;;;;9.85;5.15;;;;;;;;;;5093135;28;20189;-46
2021/08/18 08:23:20;;;;;;;11.40;5.25;;;;;;;;;;5090816;28;20197;-46
2021/08/18 08:25:46;;;;;;;10.23;4.68;;;;;;;;;;5091786;28;20593;-46
2021/08/18 08:28:12;;;;;;;9.20;5.20;;;;;;;;;;5092406;28;20212;-46
2021/08/18 08:30:38;;;;;;;8.43;4.57;;;;;;;;;;5091384;28;20190;-46
2021/08/18 08:33:04;;;;;;;8.10;4.43;;;;;;;;;;5094884;28;20182;-46
2021/08/18 08:35:30;;;;;;;11.18;5.68;;;;;;;;;;5095390;28;20185;-46
2021/08/18 08:37:56;;;;;;;9.32;4.70;;;;;;;;;;5094957;28;20248;-46
2021/08/18 08:40:22;;;;;;;8.38;4.38;;;;;;;;;;5095686;28;20260;-46
2021/08/18 08:42:49;;;;;;;10.52;4.60;;;;;;;;;;5095565;28;20177;-45
2021/08/18 08:45:15;;;;;;;8.40;4.40;;;;;;;;;;5095405;28;20173;-46
2021/08/18 08:47:41;;;;;;;9.50;4.97;;;;;;;;;;5094598;28;20574;-46
2021/08/18 08:50:09;;;;;;;9.43;4.50;;;;;;;;;;5084204;28;20189;-46
2021/08/18 08:52:35;;;;;;;8.63;4.47;;;;;;;;;;5093779;28;20177;-46
2021/08/18 08:55:02;;;;;;;8.80;4.35;;;;;;;;;;5088780;28;20186;-46
2021/08/18 08:57:28;;;;;;;9.02;4.22;;;;;;;;;;5073149;28;20171;-46
2021/08/18 08:59:54;;;;;;;7.60;4.45;;;;;;;;;;5088169;28;20247;-46
2021/08/18 09:02:21;;;;;;;6.07;3.90;;;;;;;;;;5082486;28;20224;-46
2021/08/18 09:04:48;;;;;;;7.80;3.78;;;;;;;;;;5095457;28;20188;-46
2021/08/18 09:07:15;;;;;;;7.72;4.18;;;;;;;;;;5079339;28;20821;-46
2021/08/18 09:09:43;;;;;;;8.27;3.92;;;;;;;;;;5078791;28;20186;-46
2021/08/18 09:12:09;;;;;;;7.60;3.72;;;;;;;;;;5077784;28;20197;-46
2021/08/18 09:14:35;;;;;;;6.38;3.88;;;;;;;;;;5088321;28;20564;-46
2021/08/18 09:17:01;;;;;;;6.93;4.07;;;;;;;;;;5074384;28;20175;-46
2021/08/18 09:19:31;;;;;;;6.60;3.55;;;;;;;;;;5092165;28;20238;-46
2021/08/18 09:22:07;;;;;;;7.90;3.90;;;;;;;;;;5074584;28;20181;-46
2021/08/18 09:24:33;;;;;;;5.63;3.63;;;;;;;;;;5078196;28;20201;-46
2021/08/18 09:27:06;;;;;;;7.78;4.05;;;;;;;;;;5092345;28;20169;-46
2021/08/18 09:29:45;;;;;;;5.57;3.30;;;;;;;;;;5088140;28;20253;-46
2021/08/18 09:32:20;;;;;;;5.15;3.30;;;;;;;;;;5074317;28;20604;-46
2021/08/18 09:34:54;;;;;;;5.70;3.58;;;;;;;;;;5084481;28;20178;-46
2021/08/18 09:37:20;;;;;;;6.50;3.58;;;;;;;;;;5089358;28;20269;-46
2021/08/18 09:39:46;;;;;;;5.85;3.63;;;;;;;;;;5086558;28;20185;-46
2021/08/18 09:42:26;;;;;;;5.57;3.28;;;;;;;;;;5073972;28;20196;-46
2021/08/18 09:44:52;;;;;;;5.07;3.20;;;;;;;;;;5083550;28;20537;-46
2021/08/18 09:47:18;;;;;;;6.07;3.45;;;;;;;;;;5094095;28;20271;-46
2021/08/18 09:49:44;;;;;;;5.25;3.05;;;;;;;;;;5078164;28;20183;-46
2021/08/18 09:52:15;;;;;;;6.00;3.45;;;;;;;;;;5074365;28;20170;-46
2021/08/18 09:54:41;;;;;;;5.57;3.60;;;;;;;;;;5086684;28;20173;-46
2021/08/18 09:57:07;;;;;;;4.97;3.05;;;;;;;;;;5073568;28;20224;-46
2021/08/18 09:59:37;;;;;;;4.70;2.90;;;;;;;;;;5073956;28;20174;-46
2021/08/18 10:02:03;;;;;;;4.85;3.00;;;;;;;;;;5074318;28;20190;-46
2021/08/18 10:04:29;;;;;;;4.93;2.70;;;;;;;;;;5074986;28;20175;-46
2021/08/18 10:06:55;;;;;;;5.07;3.47;;;;;;;;;;5078643;28;20186;-46
2021/08/18 10:09:21;;;;;;;5.82;3.72;;;;;;;;;;5083684;28;20215;-45
2021/08/18 10:11:47;;;;;;;6.25;3.17;;;;;;;;;;5076616;28;20577;-46
2021/08/18 10:14:13;;;;;;;5.75;2.97;;;;;;;;;;5074105;28;20171;-46
2021/08/18 10:16:39;;;;;;;5.63;2.95;;;;;;;;;;5074319;28;20206;-46
2021/08/18 10:19:06;;;;;;;5.60;2.80;;;;;;;;;;5074363;28;20505;-46
2021/08/18 10:21:33;;;;;;;4.97;3.08;;;;;;;;;;5097457;28;20181;-46
2021/08/18 10:23:59;;;;;;;4.25;2.85;;;;;;;;;;5091271;28;20182;-46
2021/08/18 10:26:45;;;;;;;3.80;2.55;;;;;;;;;;5092282;28;20222;-46
2021/08/18 10:29:22;;;;;;;6.65;2.92;;;;;;;;;;5077274;28;20192;-46
2021/08/18 10:31:48;;;;;;;5.20;3.03;;;;;;;;;;5077812;28;20166;-46
2021/08/18 10:34:25;;;;;;;4.60;2.83;;;;;;;;;;5080086;28;20179;-46
2021/08/18 10:36:53;;;;;;;4.13;2.85;;;;;;;;;;5077697;28;20185;-46
2021/08/18 10:39:19;;;;;;;3.63;2.58;;;;;;;;;;5081544;28;20179;-46
2021/08/18 10:42:03;;;;;;;4.05;2.45;;;;;;;;;;5088057;28;20257;-46
2021/08/18 10:44:35;;;;;;;6.30;2.40;;;;;;;;;;5083646;28;20173;-46
2021/08/18 10:47:13;;;;;;;4.03;2.90;;;;;;;;;;5097065;28;20174;-46
2021/08/18 10:49:39;;;;;;;4.05;2.85;;;;;;;;;;5082251;28;20178;-46
2021/08/18 10:52:06;;;;;;;4.57;2.90;;;;;;;;;;5077833;28;20539;-47
2021/08/18 10:54:31;;;;;;;3.55;2.53;;;;;;;;;;5088248;28;20182;-46
2021/08/18 10:56:59;;;;;;;4.68;2.78;;;;;;;;;;5078251;28;20252;-46
2021/08/18 10:59:45;;;;;;;4.95;2.75;;;;;;;;;;5076775;28;20185;-46
2021/08/18 11:02:31;;;;;;;3.83;2.45;;;;;;;;;;5063181;28;20221;-46
2021/08/18 11:04:57;;;;;;;3.45;2.40;;;;;;;;;;5077072;28;20171;-46
2021/08/18 11:07:43;;;;;;;3.67;1.90;;;;;;;;;;5076472;28;20197;-46
2021/08/18 11:10:15;;;;;;;3.63;2.50;;;;;;;;;;5088966;28;20170;-46
2021/08/18 11:12:41;;;;;;;3.65;2.25;;;;;;;;;;5077034;28;20250;-46
2021/08/18 11:15:19;;;;;;;2.75;2.15;;;;;;;;;;5076946;28;20257;-46
2021/08/18 11:17:46;;;;;;;4.20;2.60;;;;;;;;;;5076467;28;20531;-46
2021/08/18 11:20:12;;;;;;;4.60;2.65;;;;;;;;;;5076981;28;20189;-46
2021/08/18 11:22:38;;;;;;;3.35;2.10;;;;;;;;;;5089369;28;20196;-46
2021/08/18 11:25:05;;;;;;;3.60;2.40;;;;;;;;;;5083838;28;20189;-46
2021/08/18 11:27:31;;;;;;;3.50;2.40;;;;;;;;;;5096486;28;20209;-46
2021/08/18 11:29:56;;;;;;;3.53;2.40;;;;;;;;;;5095858;28;20166;-46
2021/08/18 11:32:26;;;;;;;5.95;2.78;;;;;;;;;;5095181;28;20545;-46
2021/08/18 11:34:52;;;;;;;4.10;2.42;;;;;;;;;;5093275;28;20208;-46
2021/08/18 11:37:18;;;;;;;3.60;2.58;;;;;;;;;;5092243;28;20185;-46
2021/08/18 11:39:48;;;;;;;2.88;2.00;;;;;;;;;;5080789;28;20190;-45
2021/08/18 11:42:18;;;;;;;3.25;2.17;;;;;;;;;;5085084;28;20186;-45
2021/08/18 11:44:46;;;;;;;3.05;2.00;;;;;;;;;;5087851;28;20182;-45
2021/08/18 11:47:12;;;;;;;4.05;2.28;;;;;;;;;;5091303;28;20202;-45
2021/08/18 11:49:39;;;;;;;3.65;2.00;;;;;;;;;;5083908;28;20174;-45
2021/08/18 11:52:06;;;;;;;3.78;2.00;;;;;;;;;;5096643;28;20166;-45
2021/08/18 11:54:32;;;;;;;3.00;2.30;;;;;;;;;;5096592;28;20534;-45
2021/08/18 11:57:00;;;;;;;3.45;1.95;;;;;;;;;;5096208;28;20158;-45
2021/08/18 11:59:26;;;;;;;2.80;1.83;;;;;;;;;;5096618;28;20173;-45
2021/08/18 12:01:52;;;;;;;2.17;1.92;;;;;;;;;;5096296;28;20186;-45
2021/08/18 12:04:22;;;;;;;2.10;1.90;;;;;;;;;;5092576;28;20170;-49
2021/08/18 12:07:03;;;;;;;3.45;2.28;;;;;;;;;;5087908;28;20178;-46
2021/08/18 12:09:29;;;;;;;3.17;1.60;;;;;;;;;;5090591;28;20182;-45
2021/08/18 12:12:09;;;;;;;3.33;1.83;;;;;;;;;;5096167;28;20177;-45
2021/08/18 12:14:48;;;;;;;3.22;2.22;;;;;;;;;;5084417;28;20261;-45
2021/08/18 12:17:14;;;;;;;4.55;2.63;;;;;;;;;;5086199;28;20189;-45
2021/08/18 12:19:45;;;;;;;4.80;2.88;;;;;;;;;;5087245;28;20223;-45
2021/08/18 12:22:14;;;;;;;5.93;2.92;;;;;;;;;;5082488;28;20209;-45
2021/08/18 12:24:41;;;;;;;3.65;2.58;;;;;;;;;;5083383;28;20174;-45
2021/08/18 12:27:08;;;;;;;6.07;2.90;;;;;;;;;;5090715;28;20182;-45
2021/08/18 12:29:35;;;;;;;4.25;2.60;;;;;;;;;;5093147;28;20204;-45
2021/08/18 12:32:05;;;;;;;8.88;2.88;;;;;;;;;;5092843;28;20489;-45
2021/08/18 12:34:51;;;;;;;4.40;2.67;;;;;;;;;;5092777;28;20552;-45
2021/08/18 12:37:18;;;;;;;3.65;2.38;;;;;;;;;;5071260;28;20574;-45
2021/08/18 12:39:57;;;;;;;3.78;2.20;;;;;;;;;;5084705;28;20174;-45
2021/08/18 12:42:33;;;;;;;5.93;2.53;;;;;;;;;;5086576;28;20190;-45
2021/08/18 12:45:18;;;;;;;4.47;2.45;;;;;;;;;;5086139;28;20204;-45
2021/08/18 12:47:46;;;;;;;4.00;2.58;;;;;;;;;;5090188;28;20231;-45
2021/08/18 12:50:13;;;;;;;4.55;2.47;;;;;;;;;;5081744;28;20570;-45
2021/08/18 12:52:39;;;;;;;3.83;2.13;;;;;;;;;;5076618;28;20187;-45
2021/08/18 12:55:05;;;;;;;3.03;2.10;;;;;;;;;;5075796;28;20178;-45
2021/08/18 12:57:31;;;;;;;3.47;2.10;;;;;;;;;;5074691;28;20245;-45
2021/08/18 12:59:58;;;;;;;3.03;1.90;;;;;;;;;;5088091;28;20182;-45
2021/08/18 13:02:24;;;;;;;2.83;1.88;;;;;;;;;;5078475;28;20214;-45
2021/08/18 13:04:49;;;;;;;3.72;2.00;;;;;;;;;;5091899;28;20207;-45
2021/08/18 13:07:15;;;;;;;3.28;2.17;;;;;;;;;;5093269;28;20271;-45
2021/08/18 13:09:41;;;;;;;4.43;2.35;;;;;;;;;;5077661;28;20263;-45
2021/08/18 13:12:08;;;;;;;4.65;2.40;;;;;;;;;;5076163;28;20752;-45
2021/08/18 13:14:34;;;;;;;3.08;1.85;;;;;;;;;;5084974;28;20213;-45
2021/08/18 13:17:01;;;;;;;2.35;2.08;;;;;;;;;;5091792;28;20198;-46
2021/08/18 13:19:29;;;;;;;5.40;2.00;;;;;;;;;;5078439;28;20178;-45
2021/08/18 13:21:55;;;;;;;24.70;7.00;;;;;;;;;;5075039;28;20249;-46
2021/08/18 13:24:21;;;;;;;61.97;12.98;;;;;;;;;;5082715;28;20177;-45
2021/08/18 13:26:48;;;;;;;26.75;7.93;;;;;;;;;;5081261;28;20174;-46
2021/08/18 13:29:15;;;;;;;35.50;7.80;;;;;;;;;;5079516;28;20210;-45
2021/08/18 13:31:41;;;;;;;33.42;8.55;;;;;;;;;;5099150;28;20535;-45
2021/08/18 13:34:08;;;;;;;37.30;9.98;;;;;;;;;;5103856;28;20260;-45
2021/08/18 13:36:35;;;;;;;35.85;9.82;;;;;;;;;;5093311;28;20178;-45
2021/08/18 13:39:01;;;;;;;58.90;12.45;;;;;;;;;;5090536;28;20236;-45
2021/08/18 13:41:28;;;;;;;44.72;11.88;;;;;;;;;;5098830;28;20182;-45
2021/08/18 13:43:55;;;;;;;45.92;10.75;;;;;;;;;;5082439;28;20211;-45
2021/08/18 13:46:24;;;;;;;42.05;11.25;;;;;;;;;;5097730;28;20194;-45
2021/08/18 13:48:51;;;;;;;45.33;12.05;;;;;;;;;;5087549;28;20294;-45
2021/08/18 13:51:17;;;;;;;43.00;11.50;;;;;;;;;;5084746;28;20527;-45
2021/08/18 13:53:43;;;;;;;45.55;12.15;;;;;;;;;;5091029;28;20175;-45
2021/08/18 13:56:09;;;;;;;43.35;10.05;;;;;;;;;;5079887;28;20186;-45
2021/08/18 13:58:35;;;;;;;40.40;10.10;;;;;;;;;;5089993;28;20440;-45
2021/08/18 14:01:02;;;;;;;35.88;9.95;;;;;;;;;;5066028;28;20193;-45
2021/08/18 14:03:28;;;;;;;27.92;9.82;;;;;;;;;;5087459;28;20262;-45
2021/08/18 14:05:54;;;;;;;30.27;9.25;;;;;;;;;;5090353;28;20190;-45
2021/08/18 14:08:20;;;;;;;32.33;8.98;;;;;;;;;;5088999;28;20227;-45
2021/08/18 14:10:49;;;;;;;30.67;9.50;;;;;;;;;;5106070;28;20445;-45
2021/08/18 14:13:15;;;;;;;26.55;8.25;;;;;;;;;;5088361;28;20182;-45
2021/08/18 14:15:42;;;;;;;29.30;8.68;;;;;;;;;;5077563;28;20178;-46
2021/08/18 14:18:09;;;;;;;25.33;8.25;;;;;;;;;;5081460;28;20260;-46
2021/08/18 14:20:35;;;;;;;24.15;7.65;;;;;;;;;;5085694;28;20217;-46
2021/08/18 14:23:01;;;;;;;28.70;7.80;;;;;;;;;;5076688;28;20182;-46
2021/08/18 14:25:27;;;;;;;22.60;7.45;;;;;;;;;;5084906;28;20186;-46
2021/08/18 14:27:53;;;;;;;19.92;7.28;;;;;;;;;;5092862;28;20288;-46
2021/08/18 14:30:19;;;;;;;20.15;7.07;;;;;;;;;;5094120;28;20174;-46
2021/08/18 14:32:45;;;;;;;24.00;7.47;;;;;;;;;;5087675;28;20220;-46
2021/08/18 14:35:13;;;;;;;19.70;5.78;;;;;;;;;;5075102;28;20248;-45
2021/08/18 14:37:41;;;;;;;16.83;6.40;;;;;;;;;;5087508;28;20251;-45